Time;durP1;ratioP1;P1;durP2;ratioP2;P2;SDS_P1;SDS_P2;PMS_P1;PMS_P2;Temp;Humidity;BMP_temperature;BMP_pressure;BME280_temperature;BME280_humidity;BME280_pressure;Samples;Min_cycle;Max_cycle;Signal;HPM_P1;HPM_P2
2022/03/12 00:01:13;;;;;;;8.60;6.17;;;-3273.90;55.80;;;;;;6314677;28;20239;-59
2022/03/12 00:04:14;;;;;;;8.20;5.30;;;-3273.80;56.20;;;;;;6302160;28;20245;-59
2022/03/12 00:07:16;;;;;;;11.13;6.07;;;-3273.90;56.30;;;;;;6297714;28;20292;-59
2022/03/12 00:10:18;;;;;;;7.53;5.17;;;-3273.80;56.40;;;;;;6298671;28;20250;-59
2022/03/12 00:13:20;;;;;;;7.47;5.20;;;-3273.80;56.60;;;;;;6313829;28;20209;-59
2022/03/12 00:16:25;;;;;;;8.87;5.40;;;-3273.80;56.10;;;;;;6310861;28;20228;-59
2022/03/12 00:19:26;;;;;;;7.83;4.80;;;-3273.70;55.40;;;;;;6309987;28;20193;-59
2022/03/12 00:22:28;;;;;;;8.10;5.37;;;-3273.60;55.20;;;;;;6318105;28;20200;-59
2022/03/12 00:25:31;;;;;;;8.17;5.07;;;-3273.50;55.00;;;;;;6260363;28;20241;-59
2022/03/12 00:28:32;;;;;;;12.33;5.10;;;-3273.60;54.70;;;;;;6272981;28;20233;-59
2022/03/12 00:31:33;;;;;;;8.13;5.50;;;-3273.60;55.40;;;;;;6256728;28;20181;-59
2022/03/12 00:34:34;;;;;;;7.70;5.00;;;-3273.40;56.10;;;;;;6261070;28;20194;-59
2022/03/12 00:37:35;;;;;;;6.73;4.80;;;-3273.40;55.90;;;;;;6288358;28;20235;-59
2022/03/12 00:40:36;;;;;;;8.40;5.70;;;-3273.40;55.90;;;;;;6264136;28;20247;-59
2022/03/12 00:43:37;;;;;;;10.50;5.53;;;-3273.30;56.70;;;;;;6263703;28;20189;-59
2022/03/12 00:46:38;;;;;;;7.17;5.27;;;-3273.30;57.00;;;;;;6273059;28;20286;-59
2022/03/12 00:49:39;;;;;;;7.70;5.20;;;-3273.30;57.00;;;;;;6272458;28;20190;-59
2022/03/12 00:52:39;;;;;;;8.53;4.57;;;-3273.30;56.50;;;;;;6272891;28;20198;-59
2022/03/12 00:55:41;;;;;;;7.23;5.10;;;-3273.30;56.40;;;;;;6269074;28;20320;-59
2022/03/12 00:58:46;;;;;;;9.53;5.27;;;-3273.20;56.90;;;;;;6265515;28;20236;-59
2022/03/12 01:01:47;;;;;;;8.83;5.37;;;-3273.20;57.00;;;;;;6255971;28;20187;-59
2022/03/12 01:04:48;;;;;;;8.27;5.30;;;-3273.10;57.20;;;;;;6299313;28;20247;-59
2022/03/12 01:07:50;;;;;;;12.40;5.40;;;-3273.00;57.10;;;;;;6273706;28;20214;-59
2022/03/12 01:10:52;;;;;;;8.87;5.47;;;-3273.00;56.70;;;;;;6276980;28;20221;-59
2022/03/12 01:13:53;;;;;;;8.43;5.13;;;-3273.00;56.70;;;;;;6300780;28;20202;-59
2022/03/12 01:16:58;;;;;;;7.30;4.70;;;-3272.90;57.10;;;;;;6285310;28;20231;-60
2022/03/12 01:20:00;;;;;;;7.53;5.07;;;-3272.80;57.60;;;;;;6301267;28;20194;-60
2022/03/12 01:23:01;;;;;;;5.60;4.27;;;-3272.80;58.20;;;;;;6285395;28;20233;-60
2022/03/12 01:26:03;;;;;;;7.00;4.50;;;-3272.80;57.90;;;;;;6260791;28;20243;-60
2022/03/12 01:29:04;;;;;;;6.20;4.50;;;-3272.80;58.10;;;;;;6268600;28;20192;-60
2022/03/12 01:32:05;;;;;;;7.63;4.77;;;-3272.60;58.50;;;;;;6268031;28;20229;-60
2022/03/12 01:35:07;;;;;;;8.27;5.30;;;-3272.70;58.30;;;;;;6276062;28;20217;-60
2022/03/12 01:38:08;;;;;;;10.03;5.40;;;-3272.60;58.30;;;;;;6278603;28;20273;-60
2022/03/12 01:41:10;;;;;;;11.57;5.50;;;-3272.70;58.40;;;;;;6284863;28;20187;-60
2022/03/12 01:44:13;;;;;;;9.13;5.27;;;-3272.70;58.30;;;;;;6283985;28;20195;-60
2022/03/12 01:47:19;;;;;;;7.30;4.90;;;-3272.70;58.60;;;;;;6270507;28;20202;-60
2022/03/12 01:50:21;;;;;;;8.33;4.93;;;-3272.70;58.40;;;;;;6252197;28;20187;-60
2022/03/12 01:53:26;;;;;;;6.40;5.20;;;-3272.50;58.50;;;;;;6266995;28;20198;-60
2022/03/12 01:56:28;;;;;;;7.40;4.27;;;-3272.60;58.10;;;;;;6275560;28;20226;-60
2022/03/12 01:59:29;;;;;;;9.23;4.87;;;-3272.60;57.90;;;;;;6300595;28;20199;-60
2022/03/12 02:02:29;;;;;;;6.53;4.30;;;-3272.60;57.30;;;;;;6285888;28;20193;-60
2022/03/12 02:05:31;;;;;;;5.60;4.10;;;-3272.70;56.80;;;;;;6276170;28;20184;-60
2022/03/12 02:08:32;;;;;;;5.70;4.30;;;-3272.50;57.00;;;;;;6252899;28;20209;-60
2022/03/12 02:11:32;;;;;;;8.93;4.90;;;-3272.50;57.20;;;;;;6300418;28;20217;-60
2022/03/12 02:14:33;;;;;;;6.50;4.63;;;-3272.50;57.30;;;;;;6265928;28;20189;-60
2022/03/12 02:17:38;;;;;;;6.63;4.47;;;-3272.40;57.50;;;;;;6267069;28;20198;-60
2022/03/12 02:20:39;;;;;;;6.50;4.37;;;-3272.30;58.10;;;;;;6295264;28;20236;-60
2022/03/12 02:23:49;;;;;;;7.77;4.13;;;-3272.40;58.10;;;;;;6290321;28;20190;-60
2022/03/12 02:26:51;;;;;;;6.70;4.20;;;-3272.30;58.20;;;;;;6283727;28;20199;-60
2022/03/12 02:29:53;;;;;;;9.20;4.83;;;-3272.20;58.20;;;;;;6284018;28;20191;-60
2022/03/12 02:32:58;;;;;;;7.20;4.23;;;-3272.30;58.30;;;;;;6262929;28;20190;-60
2022/03/12 02:35:59;;;;;;;5.53;3.83;;;-3272.20;58.40;;;;;;6275020;28;20285;-60
2022/03/12 02:39:04;;;;;;;6.73;4.20;;;-3272.10;58.80;;;;;;6258879;28;20198;-60
2022/03/12 02:42:07;;;;;;;5.70;4.03;;;-3272.20;58.90;;;;;;6265292;28;20190;-60
2022/03/12 02:45:09;;;;;;;6.87;4.33;;;-3272.20;58.20;;;;;;6283796;28;20282;-60
2022/03/12 02:48:10;;;;;;;5.90;4.10;;;-3272.10;58.50;;;;;;6269022;28;20192;-60
2022/03/12 02:51:11;;;;;;;7.10;4.33;;;-3271.90;59.80;;;;;;6274903;28;20198;-60
2022/03/12 02:54:12;;;;;;;7.87;4.83;;;-3271.90;59.70;;;;;;6271868;28;20280;-60
2022/03/12 02:57:15;;;;;;;6.37;4.03;;;-3271.90;59.80;;;;;;6264404;28;20261;-60
2022/03/12 03:00:17;;;;;;;4.70;3.80;;;-3271.90;59.60;;;;;;6283348;28;20189;-60
2022/03/12 03:03:17;;;;;;;7.57;4.83;;;-3272.00;59.30;;;;;;6282519;28;20301;-60
2022/03/12 03:06:18;;;;;;;6.87;4.30;;;-3272.00;59.10;;;;;;6283195;28;20605;-60
2022/03/12 03:09:19;;;;;;;7.20;4.37;;;-3272.00;58.80;;;;;;6266423;28;20217;-60
2022/03/12 03:12:21;;;;;;;5.67;3.97;;;-3272.00;58.70;;;;;;6264285;28;20205;-60
2022/03/12 03:15:22;;;;;;;6.93;5.13;;;-3271.90;58.80;;;;;;6248208;28;20246;-60
2022/03/12 03:18:24;;;;;;;5.37;3.77;;;-3271.90;59.00;;;;;;6257754;28;20606;-60
2022/03/12 03:21:26;;;;;;;7.20;4.60;;;-3271.90;58.80;;;;;;6273768;28;20221;-60
2022/03/12 03:24:27;;;;;;;7.20;3.90;;;-3271.90;58.50;;;;;;6257528;28;20303;-60
2022/03/12 03:27:28;;;;;;;5.83;4.17;;;-3271.80;58.80;;;;;;6282441;28;20193;-60
2022/03/12 03:30:34;;;;;;;7.83;4.10;;;-3271.80;59.10;;;;;;6265015;28;20194;-60
2022/03/12 03:33:35;;;;;;;7.03;4.50;;;-3271.70;59.10;;;;;;6281993;28;20204;-60
2022/03/12 03:36:37;;;;;;;9.27;4.80;;;-3271.70;59.30;;;;;;6299106;28;20632;-60
2022/03/12 03:39:39;;;;;;;5.27;3.77;;;-3271.70;59.30;;;;;;6269100;28;20218;-60
2022/03/12 03:42:40;;;;;;;8.50;5.07;;;-3271.70;59.10;;;;;;6277436;28;20182;-60
2022/03/12 03:45:43;;;;;;;5.93;4.27;;;-3271.70;59.00;;;;;;6268976;28;20209;-60
2022/03/12 03:48:48;;;;;;;7.70;4.50;;;-3271.80;58.90;;;;;;6273610;28;20191;-60
2022/03/12 03:51:49;;;;;;;6.80;3.67;;;-3271.80;59.20;;;;;;6273811;28;20221;-60
2022/03/12 03:54:50;;;;;;;5.70;4.30;;;-3271.70;59.60;;;;;;6297687;28;20238;-60
2022/03/12 03:57:53;;;;;;;7.47;4.40;;;-3271.70;60.00;;;;;;6264933;28;20632;-60
2022/03/12 04:00:56;;;;;;;9.77;4.00;;;-3271.60;59.90;;;;;;6281704;28;20228;-60
2022/03/12 04:03:57;;;;;;;6.60;3.80;;;-3271.60;59.70;;;;;;6281868;28;20170;-60
2022/03/12 04:06:59;;;;;;;7.63;4.70;;;-3271.50;59.70;;;;;;6281453;28;20626;-60
2022/03/12 04:10:00;;;;;;;7.73;4.33;;;-3271.50;59.40;;;;;;6265561;28;20612;-59
2022/03/12 04:13:01;;;;;;;6.20;3.93;;;-3271.50;59.00;;;;;;6260932;28;20640;-60
2022/03/12 04:16:04;;;;;;;6.57;4.70;;;-3271.50;58.60;;;;;;6279634;28;20226;-60
2022/03/12 04:19:05;;;;;;;6.80;4.73;;;-3271.40;59.20;;;;;;6281366;28;20611;-60
2022/03/12 04:22:07;;;;;;;7.03;3.87;;;-3271.40;59.40;;;;;;6264712;28;20272;-60
2022/03/12 04:25:12;;;;;;;5.40;4.10;;;-3271.40;59.60;;;;;;6280976;28;20748;-60
2022/03/12 04:28:14;;;;;;;5.07;3.67;;;-3271.40;59.90;;;;;;6264735;28;21197;-60
2022/03/12 04:31:14;;;;;;;7.70;4.80;;;-3271.30;60.20;;;;;;6281337;28;20622;-60
2022/03/12 04:34:16;;;;;;;6.80;4.73;;;-3271.30;60.60;;;;;;6264157;28;20217;-60
2022/03/12 04:37:16;;;;;;;7.63;4.17;;;-3271.30;60.30;;;;;;6238371;28;20299;-60
2022/03/12 04:40:25;;;;;;;7.40;4.93;;;-3271.20;60.00;;;;;;6281653;28;20193;-60
2022/03/12 04:43:28;;;;;;;7.93;4.73;;;-3271.30;60.00;;;;;;6271656;28;20217;-60
2022/03/12 04:46:29;;;;;;;7.33;4.07;;;-3271.20;60.20;;;;;;6280041;28;20726;-60
2022/03/12 04:49:30;;;;;;;5.73;3.70;;;-3271.20;60.20;;;;;;6260995;28;20624;-60
2022/03/12 04:52:32;;;;;;;5.67;3.80;;;-3271.20;60.40;;;;;;6261260;28;20617;-60
2022/03/12 04:55:36;;;;;;;5.23;4.07;;;-3271.20;60.40;;;;;;6278904;28;20270;-60
2022/03/12 04:58:37;;;;;;;6.37;4.33;;;-3271.10;60.70;;;;;;6269418;28;20661;-60
2022/03/12 05:01:38;;;;;;;5.87;4.13;;;-3271.10;60.60;;;;;;6268724;28;20655;-60
2022/03/12 05:04:39;;;;;;;6.83;4.20;;;-3271.20;60.80;;;;;;6266679;28;20656;-60
2022/03/12 05:07:44;;;;;;;7.23;4.03;;;-3271.10;61.10;;;;;;6277935;28;20197;-60
2022/03/12 05:10:52;;;;;;;7.53;4.80;;;-3271.10;61.30;;;;;;6261181;28;20250;-60
2022/03/12 05:13:53;;;;;;;6.47;4.17;;;-3271.00;61.80;;;;;;6299038;28;20629;-60
2022/03/12 05:16:54;;;;;;;6.63;4.37;;;-3271.00;61.90;;;;;;6268637;28;20664;-60
2022/03/12 05:19:55;;;;;;;6.13;4.53;;;-3270.90;61.70;;;;;;6268818;28;20608;-60
2022/03/12 05:22:56;;;;;;;8.43;5.20;;;-3270.90;61.90;;;;;;6285369;28;20188;-60
2022/03/12 05:25:57;;;;;;;8.93;4.90;;;-3270.90;61.90;;;;;;6268699;28;20241;-60
2022/03/12 05:28:58;;;;;;;6.93;4.83;;;-3270.90;61.90;;;;;;6262948;28;20204;-60
2022/03/12 05:31:58;;;;;;;8.63;5.20;;;-3271.00;61.80;;;;;;6268437;28;20617;-60
2022/03/12 05:34:59;;;;;;;8.33;4.47;;;-3271.10;61.90;;;;;;6271053;28;20213;-60
2022/03/12 05:38:01;;;;;;;8.07;4.93;;;-3271.10;62.20;;;;;;6292857;28;20198;-60
2022/03/12 05:41:10;;;;;;;6.17;4.30;;;-3271.10;62.30;;;;;;6298255;28;20373;-60
2022/03/12 05:44:14;;;;;;;5.47;4.47;;;-3271.10;62.40;;;;;;6306535;28;20194;-60
2022/03/12 05:47:18;;;;;;;10.07;4.37;;;-3271.00;62.60;;;;;;6301012;28;20635;-60
2022/03/12 05:50:19;;;;;;;7.80;4.97;;;-3271.10;62.50;;;;;;6311386;28;20640;-60
2022/03/12 05:53:21;;;;;;;7.30;5.27;;;-3271.20;62.10;;;;;;6291037;28;20595;-60
2022/03/12 05:56:22;;;;;;;9.57;4.27;;;-3271.10;61.70;;;;;;6293814;28;20220;-60
2022/03/12 05:59:23;;;;;;;7.27;4.80;;;-3271.20;61.60;;;;;;6300785;28;20666;-60
2022/03/12 06:02:24;;;;;;;7.53;4.60;;;-3271.20;61.20;;;;;;6303371;28;20612;-60
2022/03/12 06:05:26;;;;;;;7.60;4.70;;;-3271.30;61.50;;;;;;6303408;28;20312;-60
2022/03/12 06:08:28;;;;;;;7.67;4.97;;;-3271.40;61.60;;;;;;6303184;28;20200;-60
2022/03/12 06:11:33;;;;;;;6.00;3.93;;;-3271.40;61.60;;;;;;6310031;28;20628;-60
2022/03/12 06:14:36;;;;;;;10.20;4.80;;;-3271.40;62.00;;;;;;6283772;28;20632;-60
2022/03/12 06:17:38;;;;;;;8.43;4.93;;;-3271.50;61.70;;;;;;6300012;28;20220;-59
2022/03/12 06:20:39;;;;;;;8.13;5.40;;;-3271.50;61.50;;;;;;6298908;28;20700;-60
2022/03/12 06:23:40;;;;;;;7.80;4.73;;;-3271.60;61.30;;;;;;6300320;28;20660;-59
2022/03/12 06:26:43;;;;;;;9.37;4.70;;;-3271.70;61.20;;;;;;6302856;28;20232;-59
2022/03/12 06:29:45;;;;;;;8.07;4.87;;;-3271.70;61.20;;;;;;6300740;28;20190;-59
2022/03/12 06:32:47;;;;;;;7.63;4.70;;;-3271.80;61.00;;;;;;6300140;28;20603;-59
2022/03/12 06:35:48;;;;;;;8.40;5.23;;;-3271.90;60.50;;;;;;6288579;28;20723;-60
2022/03/12 06:38:49;;;;;;;6.90;4.57;;;-3272.00;60.00;;;;;;6277942;28;20189;-59
2022/03/12 06:41:51;;;;;;;9.47;5.40;;;-3272.10;60.10;;;;;;6283762;28;20193;-59
2022/03/12 06:44:55;;;;;;;7.57;4.70;;;-3272.20;60.10;;;;;;6280497;28;20273;-59
2022/03/12 06:47:57;;;;;;;12.83;4.90;;;-3272.20;60.30;;;;;;6302093;28;20615;-58
2022/03/12 06:50:58;;;;;;;6.90;5.20;;;-3272.30;59.90;;;;;;6288207;28;20190;-58
2022/03/12 06:53:59;;;;;;;10.47;5.30;;;-3272.50;58.70;;;;;;6295271;28;20192;-59
2022/03/12 06:57:03;;;;;;;8.47;5.03;;;-3272.50;58.90;;;;;;6313114;28;20218;-58
2022/03/12 07:00:06;;;;;;;8.57;5.17;;;-3272.50;58.70;;;;;;6283073;28;20631;-59
2022/03/12 07:03:07;;;;;;;11.93;6.33;;;-3272.60;58.60;;;;;;6299958;28;20189;-59
2022/03/12 07:06:09;;;;;;;10.10;6.40;;;-3272.80;59.00;;;;;;6292362;28;20300;-59
2022/03/12 07:09:10;;;;;;;8.63;6.40;;;-3272.90;59.20;;;;;;6304068;28;20201;-60
2022/03/12 07:12:11;;;;;;;10.43;5.90;;;-3273.00;59.20;;;;;;6281983;28;20201;-59
2022/03/12 07:15:13;;;;;;;10.87;6.50;;;-3273.10;59.00;;;;;;6284998;28;20250;-59
2022/03/12 07:18:14;;;;;;;11.43;7.60;;;-3273.20;58.90;;;;;;6287310;28;20187;-59
2022/03/12 07:21:15;;;;;;;12.20;7.47;;;-3273.30;58.50;;;;;;6257275;28;20209;-60
2022/03/12 07:24:17;;;;;;;10.10;6.20;;;-3273.40;58.30;;;;;;6289717;28;20229;-60
2022/03/12 07:27:19;;;;;;;10.90;7.23;;;-3273.50;58.30;;;;;;6316565;28;20279;-61
2022/03/12 07:30:21;;;;;;;11.03;6.27;;;-3273.60;58.20;;;;;;6298501;28;20226;-58
2022/03/12 07:33:21;;;;;;;10.80;7.07;;;-3273.70;58.10;;;;;;6315933;28;20204;-59
2022/03/12 07:36:22;;;;;;;9.73;6.37;;;-3273.80;58.00;;;;;;6303071;28;20209;-61
2022/03/12 07:39:24;;;;;;;12.80;6.80;;;-3273.80;57.90;;;;;;6269350;28;20198;-60
2022/03/12 07:42:25;;;;;;;12.37;6.97;;;-3273.90;57.90;;;;;;6294763;28;20200;-58
2022/03/12 07:45:26;;;;;;;11.17;7.07;;;-3274.10;58.00;;;;;;6305048;28;20648;-59
2022/03/12 07:48:27;;;;;;;11.87;7.63;;;-3274.20;57.80;;;;;;6309639;28;20674;-54
2022/03/12 07:51:28;;;;;;;12.47;7.63;;;-3274.30;57.60;;;;;;6293446;28;20197;-59
2022/03/12 07:54:30;;;;;;;10.20;6.57;;;-3274.40;57.50;;;;;;6292921;28;20205;-59
2022/03/12 07:57:31;;;;;;;11.80;7.97;;;-3274.50;57.10;;;;;;6276621;28;20286;-59
2022/03/12 08:00:31;;;;;;;10.83;6.87;;;-3274.70;56.40;;;;;;6283875;28;20189;-58
2022/03/12 08:03:35;;;;;;;13.47;8.00;;;-3274.70;55.30;;;;;;6263089;28;20242;-59
2022/03/12 08:06:36;;;;;;;6.70;5.23;;;-3274.90;54.10;;;;;;6287512;28;20222;-59
2022/03/12 08:09:37;;;;;;;11.37;7.30;;;-3275.00;52.80;;;;;;6294158;28;20293;-59
2022/03/12 08:12:38;;;;;;;13.90;8.17;;;-3275.20;49.70;;;;;;6292392;28;20255;-59
2022/03/12 08:15:41;;;;;;;11.77;6.70;;;-3275.30;49.50;;;;;;6298804;28;20316;-58
2022/03/12 08:18:43;;;;;;;10.60;7.00;;;-3275.50;49.20;;;;;;6310747;28;20200;-59
2022/03/12 08:21:44;;;;;;;9.83;7.00;;;-3275.60;48.50;;;;;;6299349;28;20284;-59
2022/03/12 08:24:45;;;;;;;11.00;6.80;;;-3275.90;47.60;;;;;;6262562;28;20238;-58
2022/03/12 08:27:47;;;;;;;12.93;7.70;;;-3276.10;46.70;;;;;;6263595;28;20227;-58
2022/03/12 08:30:48;;;;;;;12.40;7.10;;;-3276.30;46.00;;;;;;6280657;28;20195;-59
2022/03/12 08:33:49;;;;;;;9.90;6.90;;;-3276.40;46.20;;;;;;6284448;28;20291;-58
2022/03/12 08:36:50;;;;;;;12.10;7.10;;;-3276.50;45.20;;;;;;6295015;28;20217;-59
2022/03/12 08:39:51;;;;;;;12.33;7.60;;;0.00;44.00;;;;;;6297196;28;20192;-59
2022/03/12 08:42:55;;;;;;;11.03;7.00;;;-3276.70;43.90;;;;;;6294559;28;20190;-59
2022/03/12 08:45:56;;;;;;;12.40;7.30;;;0.00;44.10;;;;;;6321905;28;20188;-59
2022/03/12 08:48:57;;;;;;;11.00;6.47;;;0.20;43.10;;;;;;6286108;28;20267;-58
2022/03/12 08:51:58;;;;;;;11.83;6.67;;;0.30;43.00;;;;;;6265585;28;20197;-59
2022/03/12 08:55:00;;;;;;;10.13;6.70;;;0.40;41.90;;;;;;6297140;28;20185;-59
2022/03/12 08:58:01;;;;;;;12.40;7.27;;;0.40;42.00;;;;;;6302255;28;20181;-59
2022/03/12 09:01:06;;;;;;;12.10;7.23;;;0.60;42.30;;;;;;6292157;28;20200;-58
2022/03/12 09:04:07;;;;;;;12.03;7.00;;;0.80;41.90;;;;;;6293388;28;20257;-58
2022/03/12 09:07:10;;;;;;;9.57;6.70;;;0.90;40.90;;;;;;6287155;28;20219;-58
2022/03/12 09:10:13;;;;;;;9.23;6.30;;;0.80;40.40;;;;;;6281251;28;20205;-58
2022/03/12 09:13:16;;;;;;;7.93;6.50;;;0.90;40.20;;;;;;6272485;28;20170;-59
2022/03/12 09:16:17;;;;;;;11.47;6.20;;;1.00;39.60;;;;;;6272031;28;20228;-58
2022/03/12 09:19:18;;;;;;;10.93;7.50;;;1.00;40.00;;;;;;6286250;28;20192;-58
2022/03/12 09:22:18;;;;;;;9.43;6.83;;;1.00;40.50;;;;;;6297171;28;20200;-58
2022/03/12 09:25:19;;;;;;;15.13;9.60;;;1.20;41.00;;;;;;6294173;28;20270;-58
2022/03/12 09:28:21;;;;;;;11.73;7.17;;;1.40;40.50;;;;;;6299846;28;20193;-58
2022/03/12 09:31:22;;;;;;;9.37;6.23;;;1.40;39.20;;;;;;6285043;28;20180;-58
2022/03/12 09:34:23;;;;;;;7.93;5.60;;;1.60;38.90;;;;;;6257246;28;20204;-58
2022/03/12 09:37:25;;;;;;;8.23;5.50;;;1.70;37.20;;;;;;6288255;28;20218;-57
2022/03/12 09:40:26;;;;;;;6.93;5.37;;;1.60;38.20;;;;;;6295088;28;20196;-58
2022/03/12 09:43:27;;;;;;;9.63;7.03;;;1.80;37.10;;;;;;6292392;28;20679;-58
2022/03/12 09:46:28;;;;;;;14.20;6.57;;;2.10;37.10;;;;;;6279657;28;20202;-58
2022/03/12 09:49:29;;;;;;;8.43;6.70;;;2.00;37.20;;;;;;6305955;28;20247;-58
2022/03/12 09:52:29;;;;;;;10.70;6.00;;;2.00;37.50;;;;;;6286984;28;20203;-58
2022/03/12 09:55:31;;;;;;;7.53;6.03;;;2.20;34.90;;;;;;6265826;28;20223;-58
2022/03/12 09:58:32;;;;;;;10.60;7.53;;;2.30;34.70;;;;;;6312114;28;20212;-58
2022/03/12 10:01:32;;;;;;;8.37;5.67;;;2.40;34.90;;;;;;6298399;28;20188;-58
2022/03/12 10:04:34;;;;;;;7.80;6.27;;;2.30;35.90;;;;;;6291625;28;20196;-58
2022/03/12 10:07:35;;;;;;;6.80;5.00;;;2.30;35.20;;;;;;6241144;28;20204;-58
2022/03/12 10:10:35;;;;;;;14.97;5.90;;;2.30;34.30;;;;;;6313364;28;20200;-58
2022/03/12 10:13:36;;;;;;;8.10;5.47;;;2.60;32.80;;;;;;6307954;28;20189;-58
2022/03/12 10:16:37;;;;;;;8.13;6.00;;;2.50;32.70;;;;;;6284658;28;20231;-59
2022/03/12 10:19:38;;;;;;;8.97;6.20;;;2.70;34.30;;;;;;6284340;28;20172;-58
2022/03/12 10:22:39;;;;;;;10.73;5.83;;;3.00;31.60;;;;;;6275891;28;20227;-58
2022/03/12 10:25:40;;;;;;;7.57;5.57;;;2.90;32.10;;;;;;6317212;28;20260;-58
2022/03/12 10:28:41;;;;;;;8.30;5.37;;;2.80;32.00;;;;;;6300771;28;20193;-58
2022/03/12 10:31:42;;;;;;;5.83;4.60;;;3.00;31.10;;;;;;6321135;28;20193;-58
2022/03/12 10:34:43;;;;;;;8.53;4.80;;;3.00;30.70;;;;;;6283757;28;20188;-57
2022/03/12 10:37:44;;;;;;;6.67;4.87;;;3.10;32.40;;;;;;6311661;28;20212;-58
2022/03/12 10:40:45;;;;;;;5.70;4.23;;;3.30;29.80;;;;;;6285987;28;20185;-58
2022/03/12 10:43:55;;;;;;;5.73;4.00;;;3.30;29.90;;;;;;6299880;28;20254;-58
2022/03/12 10:46:56;;;;;;;6.73;4.33;;;3.30;29.70;;;;;;6314458;28;20192;-58
2022/03/12 10:50:00;;;;;;;6.17;4.80;;;3.30;30.10;;;;;;6297234;28;20203;-58
2022/03/12 10:53:05;;;;;;;7.37;5.77;;;3.30;30.00;;;;;;6298961;28;20196;-58
2022/03/12 10:56:07;;;;;;;6.37;4.40;;;3.30;31.10;;;;;;6285468;28;20227;-57
2022/03/12 10:59:13;;;;;;;7.57;6.00;;;3.40;30.50;;;;;;6266901;28;20189;-60
2022/03/12 11:02:15;;;;;;;7.07;5.30;;;3.80;30.30;;;;;;6282683;28;20284;-59
2022/03/12 11:05:16;;;;;;;7.43;6.13;;;4.00;30.80;;;;;;6265304;28;20193;-60
2022/03/12 11:08:22;;;;;;;6.80;5.50;;;4.10;30.60;;;;;;6269134;28;20193;-60
2022/03/12 11:11:23;;;;;;;8.30;5.80;;;4.10;31.00;;;;;;6322675;28;20255;-60
2022/03/12 11:14:28;;;;;;;7.50;5.43;;;4.20;31.70;;;;;;6300857;28;20218;-61
2022/03/12 11:17:29;;;;;;;11.70;6.30;;;4.50;31.40;;;;;;6296056;28;20217;-60
2022/03/12 11:20:35;;;;;;;6.40;5.27;;;4.90;28.60;;;;;;6297250;28;20193;-61
2022/03/12 11:23:37;;;;;;;8.00;5.70;;;4.80;27.90;;;;;;6294282;28;20197;-61
2022/03/12 11:26:51;;;;;;;6.90;5.60;;;5.00;27.40;;;;;;6301358;28;20258;-60
2022/03/12 11:30:09;;;;;;;6.90;4.93;;;5.30;28.30;;;;;;6312480;28;20634;-60
2022/03/12 11:33:10;;;;;;;6.40;5.00;;;5.40;26.80;;;;;;6310904;28;20196;-60
2022/03/12 11:36:11;;;;;;;5.53;4.97;;;5.10;26.70;;;;;;6312067;28;20207;-61
2022/03/12 11:39:40;;;;;;;7.87;5.37;;;5.10;27.80;;;;;;6293426;28;20192;-60
2022/03/12 11:42:41;;;;;;;6.70;5.60;;;5.60;29.70;;;;;;6294748;28;20192;-60
2022/03/12 11:45:42;;;;;;;5.93;4.80;;;5.70;26.90;;;;;;6310940;28;20238;-60
2022/03/12 11:48:43;;;;;;;5.83;4.97;;;6.10;25.20;;;;;;6297123;28;20527;-60
2022/03/12 11:51:45;;;;;;;6.00;4.57;;;6.30;25.50;;;;;;6296379;28;20196;-59
2022/03/12 11:54:47;;;;;;;7.03;5.37;;;6.30;24.00;;;;;;6293740;28;20236;-59
2022/03/12 11:57:49;;;;;;;6.27;4.93;;;6.60;24.90;;;;;;6299451;28;20223;-59
2022/03/12 12:00:50;;;;;;;6.17;4.20;;;6.70;23.50;;;;;;6303337;28;20211;-59
2022/03/12 12:03:53;;;;;;;4.83;4.27;;;6.80;22.70;;;;;;6286613;28;20197;-59
2022/03/12 12:06:55;;;;;;;5.07;3.50;;;7.10;22.70;;;;;;6292731;28;20201;-59
2022/03/12 12:09:56;;;;;;;4.13;3.37;;;7.50;21.20;;;;;;6283746;28;20287;-60
2022/03/12 12:12:57;;;;;;;5.30;3.47;;;7.80;20.80;;;;;;6292458;28;20207;-60
2022/03/12 12:15:58;;;;;;;4.00;3.10;;;8.00;20.90;;;;;;6283652;28;20232;-60
2022/03/12 12:19:00;;;;;;;4.33;3.47;;;8.30;19.70;;;;;;6303806;28;20192;-60
2022/03/12 12:22:02;;;;;;;5.57;4.27;;;7.90;19.40;;;;;;6298237;28;20181;-61
2022/03/12 12:25:05;;;;;;;3.63;2.93;;;8.50;21.00;;;;;;6331076;28;20232;-60
2022/03/12 12:28:21;;;;;;;5.17;3.77;;;8.80;18.60;;;;;;6283177;28;20201;-61
2022/03/12 12:31:27;;;;;;;5.27;3.43;;;9.10;18.80;;;;;;6304394;28;20194;-59
2022/03/12 12:34:29;;;;;;;6.23;4.13;;;10.70;19.10;;;;;;6310563;28;20189;-59
2022/03/12 12:37:59;;;;;;;5.33;4.13;;;13.40;17.80;;;;;;6264494;28;20219;-57
2022/03/12 12:41:03;;;;;;;6.93;4.40;;;16.60;15.50;;;;;;6292883;28;20193;-57
2022/03/12 12:44:07;;;;;;;4.37;3.97;;;19.70;13.90;;;;;;6309056;28;20272;-56
2022/03/12 12:47:15;;;;;;;3.67;3.37;;;21.90;12.10;;;;;;6240007;28;20186;-57
2022/03/12 12:50:23;;;;;;;4.43;3.00;;;23.70;10.80;;;;;;6289818;28;20198;-57
2022/03/12 12:53:32;;;;;;;5.37;4.20;;;25.70;9.00;;;;;;6281365;28;20194;-57
2022/03/12 12:56:36;;;;;;;4.90;4.37;;;26.90;8.30;;;;;;6269559;28;20210;-56
2022/03/12 12:59:41;;;;;;;4.97;3.90;;;26.00;8.30;;;;;;6303281;28;20200;-58
2022/03/12 13:02:42;;;;;;;4.40;4.00;;;26.60;8.90;;;;;;6310493;28;20188;-58
2022/03/12 13:05:52;;;;;;;3.90;3.50;;;26.80;8.40;;;;;;6317838;28;20267;-58
2022/03/12 13:08:52;;;;;;;3.73;3.43;;;27.70;7.70;;;;;;6311959;28;20471;-57
2022/03/12 13:11:58;;;;;;;4.93;3.77;;;27.00;7.60;;;;;;6296636;28;20197;-57
2022/03/12 13:15:02;;;;;;;4.57;3.60;;;25.70;9.40;;;;;;6313129;28;20196;-58
2022/03/12 13:18:21;;;;;;;4.57;4.17;;;25.50;9.20;;;;;;6326178;28;20189;-58
2022/03/12 13:21:35;;;;;;;4.40;4.00;;;25.80;9.30;;;;;;6328520;28;20176;-58
2022/03/12 13:24:58;;;;;;;5.63;4.37;;;26.60;8.40;;;;;;6319524;28;20320;-58
2022/03/12 13:28:01;;;;;;;5.80;3.73;;;25.20;8.60;;;;;;6324181;28;20193;-58
2022/03/12 13:31:32;;;;;;;4.10;3.70;;;25.10;7.90;;;;;;6288483;28;20186;-58
2022/03/12 13:34:36;;;;;;;4.13;3.73;;;23.70;8.90;;;;;;6304793;28;20203;-58
2022/03/12 13:37:40;;;;;;;4.43;4.03;;;24.60;9.30;;;;;;6302668;28;20258;-59
2022/03/12 13:40:41;;;;;;;5.07;4.57;;;25.70;8.70;;;;;;6278763;28;20189;-59
2022/03/12 13:43:42;;;;;;;8.50;5.67;;;24.50;9.30;;;;;;6280885;28;20201;-59
2022/03/12 13:46:47;;;;;;;6.10;5.50;;;23.20;9.90;;;;;;6253617;28;20185;-58
2022/03/12 13:49:52;;;;;;;5.63;5.13;;;23.30;10.40;;;;;;6301487;28;20182;-58
2022/03/12 13:52:58;;;;;;;5.60;5.10;;;25.80;9.80;;;;;;6285234;28;20173;-58
2022/03/12 13:56:17;;;;;;;6.27;5.77;;;28.20;8.70;;;;;;6302187;28;20217;-56
2022/03/12 13:59:27;;;;;;;8.10;6.23;;;28.50;8.70;;;;;;6300396;28;20251;-56
2022/03/12 14:02:28;;;;;;;7.60;6.87;;;28.60;8.80;;;;;;6301169;28;20217;-57
2022/03/12 14:05:37;;;;;;;7.63;6.93;;;29.00;8.70;;;;;;6284858;28;20203;-56
2022/03/12 14:08:45;;;;;;;7.67;6.73;;;27.30;9.70;;;;;;6321732;28;20196;-57
2022/03/12 14:11:57;;;;;;;7.07;6.47;;;27.70;10.00;;;;;;6318075;28;20216;-58
2022/03/12 14:15:00;;;;;;;7.37;6.67;;;28.80;9.70;;;;;;6283754;28;20189;-59
2022/03/12 14:18:04;;;;;;;7.47;6.77;;;30.00;9.00;;;;;;6276673;28;20209;-58
2022/03/12 14:21:12;;;;;;;9.57;7.97;;;30.20;8.30;;;;;;6306134;28;20193;-58
2022/03/12 14:24:22;;;;;;;8.70;7.23;;;30.20;8.80;;;;;;6302230;28;20242;-56
2022/03/12 14:27:28;;;;;;;7.57;6.63;;;29.00;8.80;;;;;;6308141;28;20188;-58
2022/03/12 14:30:29;;;;;;;7.40;6.70;;;30.10;8.60;;;;;;6275102;28;20194;-58
2022/03/12 14:33:30;;;;;;;7.20;6.50;;;29.60;8.90;;;;;;6288090;28;20224;-58
2022/03/12 14:36:34;;;;;;;8.10;7.30;;;29.30;9.00;;;;;;6319869;28;20213;-59
2022/03/12 14:39:37;;;;;;;9.33;6.90;;;28.80;8.70;;;;;;6334212;28;20185;-60
2022/03/12 14:42:40;;;;;;;7.90;7.07;;;29.80;8.00;;;;;;6316294;28;20193;-59
2022/03/12 14:45:40;;;;;;;9.57;7.10;;;29.20;8.40;;;;;;6292964;28;20205;-59
2022/03/12 14:48:44;;;;;;;7.43;6.47;;;28.70;9.10;;;;;;6304288;28;20200;-60
2022/03/12 14:52:14;;;;;;;7.23;6.53;;;29.50;8.30;;;;;;6314259;28;20200;-60
2022/03/12 14:55:16;;;;;;;6.23;5.70;;;29.40;8.60;;;;;;6263794;28;20234;-60
2022/03/12 14:58:18;;;;;;;7.73;5.80;;;29.40;8.50;;;;;;6273380;28;20193;-60
2022/03/12 15:01:29;;;;;;;7.77;5.60;;;28.70;8.70;;;;;;6304737;28;20218;-60
2022/03/12 15:04:29;;;;;;;5.73;5.23;;;29.40;8.30;;;;;;6286363;28;20192;-59
2022/03/12 15:07:33;;;;;;;7.43;5.87;;;28.60;8.50;;;;;;6298448;28;20200;-61
2022/03/12 15:10:34;;;;;;;6.47;5.87;;;27.80;9.00;;;;;;6319586;28;20284;-59
2022/03/12 15:13:41;;;;;;;7.07;6.17;;;28.30;8.70;;;;;;6316156;28;20242;-60
2022/03/12 15:16:48;;;;;;;8.47;6.40;;;27.90;8.80;;;;;;6305609;28;20213;-59
2022/03/12 15:20:10;;;;;;;6.53;5.93;;;27.70;8.50;;;;;;6301201;28;20188;-60
2022/03/12 15:23:23;;;;;;;6.87;6.17;;;25.70;9.60;;;;;;6312553;28;20199;-60
2022/03/12 15:26:25;;;;;;;7.43;6.47;;;25.90;10.00;;;;;;6299911;28;20247;-60
2022/03/12 15:29:29;;;;;;;6.87;6.17;;;25.20;10.10;;;;;;6304050;28;20204;-60
2022/03/12 15:32:33;;;;;;;8.07;5.97;;;24.60;10.60;;;;;;6322609;28;20207;-59
2022/03/12 15:35:36;;;;;;;6.13;5.53;;;24.90;10.40;;;;;;6327291;28;20216;-59